sensor_id;sensor_type;location;lat;lon;timestamp;P1;durP1;ratioP1;P2;durP2;ratioP2
77012;SDS011;67260;53.130;17.982;2023-05-07T00:00:47;21.60;;;11.50;;
77012;SDS011;67260;53.130;17.982;2023-05-07T00:03:20;20.80;;;11.30;;
77012;SDS011;67260;53.130;17.982;2023-05-07T00:05:48;20.20;;;11.60;;
77012;SDS011;67260;53.130;17.982;2023-05-07T00:08:16;21.00;;;11.00;;
77012;SDS011;67260;53.130;17.982;2023-05-07T00:10:44;20.20;;;10.80;;
77012;SDS011;67260;53.130;17.982;2023-05-07T00:13:11;19.20;;;11.30;;
77012;SDS011;67260;53.130;17.982;2023-05-07T00:15:39;19.00;;;10.00;;
77012;SDS011;67260;53.130;17.982;2023-05-07T00:18:06;15.30;;;9.30;;
77012;SDS011;67260;53.130;17.982;2023-05-07T00:20:33;18.30;;;10.20;;
77012;SDS011;67260;53.130;17.982;2023-05-07T00:23:00;17.20;;;9.90;;
77012;SDS011;67260;53.130;17.982;2023-05-07T00:25:27;18.40;;;10.30;;
77012;SDS011;67260;53.130;17.982;2023-05-07T00:30:21;17.00;;;9.80;;
77012;SDS011;67260;53.130;17.982;2023-05-07T00:32:48;18.20;;;10.20;;
77012;SDS011;67260;53.130;17.982;2023-05-07T00:35:15;20.80;;;10.30;;
77012;SDS011;67260;53.130;17.982;2023-05-07T00:37:42;18.30;;;10.40;;
77012;SDS011;67260;53.130;17.982;2023-05-07T00:40:09;20.40;;;10.90;;
77012;SDS011;67260;53.130;17.982;2023-05-07T00:42:39;18.20;;;11.10;;
77012;SDS011;67260;53.130;17.982;2023-05-07T00:45:10;18.30;;;10.60;;
77012;SDS011;67260;53.130;17.982;2023-05-07T00:47:37;20.10;;;11.00;;
77012;SDS011;67260;53.130;17.982;2023-05-07T00:50:04;20.80;;;11.50;;
77012;SDS011;67260;53.130;17.982;2023-05-07T00:52:32;21.20;;;10.80;;
77012;SDS011;67260;53.130;17.982;2023-05-07T00:55:01;18.40;;;10.90;;
77012;SDS011;67260;53.130;17.982;2023-05-07T00:57:35;21.90;;;11.40;;
77012;SDS011;67260;53.130;17.982;2023-05-07T01:00:04;20.50;;;10.80;;
77012;SDS011;67260;53.130;17.982;2023-05-07T01:02:31;21.40;;;11.40;;
77012;SDS011;67260;53.130;17.982;2023-05-07T01:07:26;21.30;;;10.90;;
77012;SDS011;67260;53.130;17.982;2023-05-07T01:09:53;20.20;;;12.50;;
77012;SDS011;67260;53.130;17.982;2023-05-07T01:12:20;19.20;;;10.70;;
77012;SDS011;67260;53.130;17.982;2023-05-07T01:14:48;23.00;;;10.80;;
77012;SDS011;67260;53.130;17.982;2023-05-07T01:17:17;19.40;;;11.50;;
77012;SDS011;67260;53.130;17.982;2023-05-07T01:19:44;21.10;;;11.50;;
77012;SDS011;67260;53.130;17.982;2023-05-07T01:22:12;22.40;;;11.10;;
77012;SDS011;67260;53.130;17.982;2023-05-07T01:24:47;18.90;;;10.70;;
77012;SDS011;67260;53.130;17.982;2023-05-07T01:27:14;17.10;;;10.20;;
77012;SDS011;67260;53.130;17.982;2023-05-07T01:29:41;19.00;;;11.60;;
77012;SDS011;67260;53.130;17.982;2023-05-07T01:32:08;20.70;;;10.40;;
77012;SDS011;67260;53.130;17.982;2023-05-07T01:34:35;19.60;;;11.30;;
77012;SDS011;67260;53.130;17.982;2023-05-07T01:37:03;18.90;;;10.90;;
77012;SDS011;67260;53.130;17.982;2023-05-07T01:41:57;20.30;;;11.10;;
77012;SDS011;67260;53.130;17.982;2023-05-07T01:44:26;20.10;;;11.10;;
77012;SDS011;67260;53.130;17.982;2023-05-07T01:46:55;19.20;;;11.30;;
77012;SDS011;67260;53.130;17.982;2023-05-07T01:49:23;19.70;;;11.40;;
77012;SDS011;67260;53.130;17.982;2023-05-07T01:51:50;20.40;;;11.10;;
77012;SDS011;67260;53.130;17.982;2023-05-07T01:54:19;20.90;;;11.50;;
77012;SDS011;67260;53.130;17.982;2023-05-07T01:56:55;19.60;;;10.80;;
77012;SDS011;67260;53.130;17.982;2023-05-07T01:59:23;17.10;;;10.70;;
77012;SDS011;67260;53.130;17.982;2023-05-07T02:04:17;19.20;;;10.50;;
77012;SDS011;67260;53.130;17.982;2023-05-07T02:06:44;17.00;;;10.20;;
77012;SDS011;67260;53.130;17.982;2023-05-07T02:09:12;16.80;;;10.30;;
77012;SDS011;67260;53.130;17.982;2023-05-07T02:11:43;16.50;;;9.80;;
77012;SDS011;67260;53.130;17.982;2023-05-07T02:14:10;17.20;;;9.30;;
77012;SDS011;67260;53.130;17.982;2023-05-07T02:16:36;16.20;;;9.80;;
77012;SDS011;67260;53.130;17.982;2023-05-07T02:19:03;21.50;;;10.20;;
77012;SDS011;67260;53.130;17.982;2023-05-07T02:23:57;18.10;;;10.00;;
77012;SDS011;67260;53.130;17.982;2023-05-07T02:26:23;19.20;;;11.10;;
77012;SDS011;67260;53.130;17.982;2023-05-07T02:28:51;14.80;;;9.50;;
77012;SDS011;67260;53.130;17.982;2023-05-07T02:31:18;17.20;;;9.90;;
77012;SDS011;67260;53.130;17.982;2023-05-07T02:36:13;17.20;;;9.70;;
77012;SDS011;67260;53.130;17.982;2023-05-07T02:38:45;17.00;;;9.60;;
77012;SDS011;67260;53.130;17.982;2023-05-07T02:43:38;18.50;;;10.20;;
77012;SDS011;67260;53.130;17.982;2023-05-07T02:48:34;15.90;;;9.50;;
77012;SDS011;67260;53.130;17.982;2023-05-07T02:51:01;20.80;;;10.20;;
77012;SDS011;67260;53.130;17.982;2023-05-07T02:53:29;16.80;;;9.10;;
77012;SDS011;67260;53.130;17.982;2023-05-07T02:55:57;16.10;;;9.20;;
77012;SDS011;67260;53.130;17.982;2023-05-07T02:58:25;14.90;;;9.70;;
77012;SDS011;67260;53.130;17.982;2023-05-07T03:00:52;19.80;;;9.90;;
77012;SDS011;67260;53.130;17.982;2023-05-07T03:03:32;17.50;;;10.70;;
77012;SDS011;67260;53.130;17.982;2023-05-07T03:05:58;17.00;;;9.70;;
77012;SDS011;67260;53.130;17.982;2023-05-07T03:08:26;16.20;;;9.20;;
77012;SDS011;67260;53.130;17.982;2023-05-07T03:10:53;18.80;;;11.00;;
77012;SDS011;67260;53.130;17.982;2023-05-07T03:15:47;19.10;;;10.50;;
77012;SDS011;67260;53.130;17.982;2023-05-07T03:18:14;19.20;;;10.50;;
77012;SDS011;67260;53.130;17.982;2023-05-07T03:23:08;17.80;;;10.20;;
77012;SDS011;67260;53.130;17.982;2023-05-07T03:25:34;17.50;;;10.30;;
77012;SDS011;67260;53.130;17.982;2023-05-07T03:30:37;27.50;;;16.80;;
77012;SDS011;67260;53.130;17.982;2023-05-07T03:35:30;26.80;;;16.40;;
77012;SDS011;67260;53.130;17.982;2023-05-07T03:40:26;30.10;;;19.20;;
77012;SDS011;67260;53.130;17.982;2023-05-07T03:42:53;31.50;;;21.10;;
77012;SDS011;67260;53.130;17.982;2023-05-07T03:45:23;33.30;;;20.50;;
77012;SDS011;67260;53.130;17.982;2023-05-07T03:47:58;34.40;;;21.80;;
77012;SDS011;67260;53.130;17.982;2023-05-07T03:50:25;32.20;;;19.40;;
77012;SDS011;67260;53.130;17.982;2023-05-07T03:52:52;28.50;;;17.70;;
77012;SDS011;67260;53.130;17.982;2023-05-07T03:55:21;30.60;;;18.70;;
77012;SDS011;67260;53.130;17.982;2023-05-07T03:57:54;31.80;;;21.50;;
77012;SDS011;67260;53.130;17.982;2023-05-07T04:00:25;31.50;;;21.90;;
77012;SDS011;67260;53.130;17.982;2023-05-07T04:02:51;33.50;;;20.90;;
77012;SDS011;67260;53.130;17.982;2023-05-07T04:05:25;32.40;;;21.00;;
77012;SDS011;67260;53.130;17.982;2023-05-07T04:07:55;30.30;;;20.10;;
77012;SDS011;67260;53.130;17.982;2023-05-07T04:10:27;34.20;;;22.40;;
77012;SDS011;67260;53.130;17.982;2023-05-07T04:12:56;35.80;;;23.00;;
77012;SDS011;67260;53.130;17.982;2023-05-07T04:15:24;35.30;;;23.20;;
77012;SDS011;67260;53.130;17.982;2023-05-07T04:17:51;35.30;;;20.80;;
77012;SDS011;67260;53.130;17.982;2023-05-07T04:20:19;35.20;;;20.30;;
77012;SDS011;67260;53.130;17.982;2023-05-07T04:22:49;33.90;;;20.70;;
77012;SDS011;67260;53.130;17.982;2023-05-07T04:25:15;36.40;;;20.90;;
77012;SDS011;67260;53.130;17.982;2023-05-07T04:27:46;33.90;;;20.20;;
77012;SDS011;67260;53.130;17.982;2023-05-07T04:30:14;33.90;;;19.50;;
77012;SDS011;67260;53.130;17.982;2023-05-07T04:32:41;31.10;;;19.80;;
77012;SDS011;67260;53.130;17.982;2023-05-07T04:35:08;28.50;;;18.50;;
77012;SDS011;67260;53.130;17.982;2023-05-07T04:37:35;25.50;;;18.30;;
77012;SDS011;67260;53.130;17.982;2023-05-07T04:40:03;27.20;;;17.00;;
77012;SDS011;67260;53.130;17.982;2023-05-07T04:42:31;25.80;;;17.90;;
77012;SDS011;67260;53.130;17.982;2023-05-07T04:44:59;25.90;;;16.90;;
77012;SDS011;67260;53.130;17.982;2023-05-07T04:47:27;23.60;;;16.00;;
77012;SDS011;67260;53.130;17.982;2023-05-07T04:49:53;22.70;;;15.80;;
77012;SDS011;67260;53.130;17.982;2023-05-07T04:52:20;22.50;;;15.90;;
77012;SDS011;67260;53.130;17.982;2023-05-07T04:54:47;20.90;;;14.50;;
77012;SDS011;67260;53.130;17.982;2023-05-07T04:57:15;22.60;;;14.80;;
77012;SDS011;67260;53.130;17.982;2023-05-07T04:59:44;21.10;;;14.70;;
77012;SDS011;67260;53.130;17.982;2023-05-07T05:02:10;21.10;;;14.10;;
77012;SDS011;67260;53.130;17.982;2023-05-07T05:04:41;18.10;;;12.80;;
77012;SDS011;67260;53.130;17.982;2023-05-07T05:07:18;17.00;;;11.50;;
77012;SDS011;67260;53.130;17.982;2023-05-07T05:09:52;16.60;;;11.00;;
77012;SDS011;67260;53.130;17.982;2023-05-07T05:12:20;16.70;;;10.50;;
77012;SDS011;67260;53.130;17.982;2023-05-07T05:14:47;14.80;;;10.00;;
77012;SDS011;67260;53.130;17.982;2023-05-07T05:17:14;14.60;;;10.80;;
77012;SDS011;67260;53.130;17.982;2023-05-07T05:19:43;13.00;;;9.70;;
77012;SDS011;67260;53.130;17.982;2023-05-07T05:22:10;13.00;;;9.60;;
77012;SDS011;67260;53.130;17.982;2023-05-07T05:24:37;12.50;;;8.90;;
77012;SDS011;67260;53.130;17.982;2023-05-07T05:27:04;15.10;;;9.70;;
77012;SDS011;67260;53.130;17.982;2023-05-07T05:29:31;12.90;;;8.90;;
77012;SDS011;67260;53.130;17.982;2023-05-07T05:31:58;14.80;;;9.30;;
77012;SDS011;67260;53.130;17.982;2023-05-07T05:34:25;12.40;;;8.90;;
77012;SDS011;67260;53.130;17.982;2023-05-07T05:36:52;15.40;;;9.10;;
77012;SDS011;67260;53.130;17.982;2023-05-07T05:39:20;11.60;;;8.40;;
77012;SDS011;67260;53.130;17.982;2023-05-07T05:41:47;12.40;;;8.70;;
77012;SDS011;67260;53.130;17.982;2023-05-07T05:44:15;13.30;;;8.80;;
77012;SDS011;67260;53.130;17.982;2023-05-07T05:46:42;12.60;;;9.80;;
77012;SDS011;67260;53.130;17.982;2023-05-07T05:49:09;12.50;;;9.60;;
77012;SDS011;67260;53.130;17.982;2023-05-07T05:51:37;11.90;;;8.30;;
77012;SDS011;67260;53.130;17.982;2023-05-07T05:54:04;10.30;;;8.30;;
77012;SDS011;67260;53.130;17.982;2023-05-07T05:56:32;14.60;;;8.40;;
77012;SDS011;67260;53.130;17.982;2023-05-07T05:59:02;11.20;;;8.20;;
77012;SDS011;67260;53.130;17.982;2023-05-07T06:01:32;14.50;;;8.20;;
77012;SDS011;67260;53.130;17.982;2023-05-07T06:04:02;10.10;;;7.80;;
77012;SDS011;67260;53.130;17.982;2023-05-07T06:06:34;11.90;;;7.30;;
77012;SDS011;67260;53.130;17.982;2023-05-07T06:09:01;11.40;;;7.50;;
77012;SDS011;67260;53.130;17.982;2023-05-07T06:11:33;9.20;;;6.90;;
77012;SDS011;67260;53.130;17.982;2023-05-07T06:14:01;11.30;;;7.30;;
77012;SDS011;67260;53.130;17.982;2023-05-07T06:16:29;8.90;;;6.70;;
77012;SDS011;67260;53.130;17.982;2023-05-07T06:18:57;9.90;;;6.80;;
77012;SDS011;67260;53.130;17.982;2023-05-07T06:21:24;9.70;;;6.60;;
77012;SDS011;67260;53.130;17.982;2023-05-07T06:23:51;13.90;;;7.10;;
77012;SDS011;67260;53.130;17.982;2023-05-07T06:26:19;9.90;;;6.20;;
77012;SDS011;67260;53.130;17.982;2023-05-07T06:28:49;10.00;;;6.00;;
77012;SDS011;67260;53.130;17.982;2023-05-07T06:31:17;11.10;;;5.90;;
77012;SDS011;67260;53.130;17.982;2023-05-07T06:34:00;8.60;;;5.70;;
77012;SDS011;67260;53.130;17.982;2023-05-07T06:36:32;8.70;;;5.40;;
77012;SDS011;67260;53.130;17.982;2023-05-07T06:39:04;7.70;;;4.70;;
77012;SDS011;67260;53.130;17.982;2023-05-07T06:41:30;7.80;;;5.80;;
77012;SDS011;67260;53.130;17.982;2023-05-07T06:44:01;8.20;;;5.10;;
77012;SDS011;67260;53.130;17.982;2023-05-07T06:46:39;6.30;;;4.60;;
77012;SDS011;67260;53.130;17.982;2023-05-07T06:49:06;7.10;;;5.20;;
77012;SDS011;67260;53.130;17.982;2023-05-07T06:51:33;7.30;;;4.70;;
77012;SDS011;67260;53.130;17.982;2023-05-07T06:54:02;7.80;;;4.80;;
77012;SDS011;67260;53.130;17.982;2023-05-07T06:56:31;6.50;;;4.70;;
77012;SDS011;67260;53.130;17.982;2023-05-07T06:58:59;8.80;;;5.30;;
77012;SDS011;67260;53.130;17.982;2023-05-07T07:01:30;7.30;;;4.50;;
77012;SDS011;67260;53.130;17.982;2023-05-07T07:03:57;9.70;;;4.40;;
77012;SDS011;67260;53.130;17.982;2023-05-07T07:06:24;9.30;;;4.40;;
77012;SDS011;67260;53.130;17.982;2023-05-07T07:08:52;8.00;;;4.50;;
77012;SDS011;67260;53.130;17.982;2023-05-07T07:11:19;6.60;;;4.10;;
77012;SDS011;67260;53.130;17.982;2023-05-07T07:13:47;5.90;;;4.60;;
77012;SDS011;67260;53.130;17.982;2023-05-07T07:16:13;6.20;;;4.30;;
77012;SDS011;67260;53.130;17.982;2023-05-07T07:18:40;7.40;;;4.30;;
77012;SDS011;67260;53.130;17.982;2023-05-07T07:21:07;8.30;;;4.30;;
77012;SDS011;67260;53.130;17.982;2023-05-07T07:23:35;7.20;;;4.60;;
77012;SDS011;67260;53.130;17.982;2023-05-07T07:26:03;6.60;;;4.30;;
77012;SDS011;67260;53.130;17.982;2023-05-07T07:28:30;6.00;;;4.10;;
77012;SDS011;67260;53.130;17.982;2023-05-07T07:31:03;5.70;;;4.00;;
77012;SDS011;67260;53.130;17.982;2023-05-07T07:33:33;6.30;;;4.00;;
77012;SDS011;67260;53.130;17.982;2023-05-07T07:36:01;5.90;;;4.20;;
77012;SDS011;67260;53.130;17.982;2023-05-07T07:38:28;6.40;;;4.00;;
77012;SDS011;67260;53.130;17.982;2023-05-07T07:40:55;6.70;;;3.80;;
77012;SDS011;67260;53.130;17.982;2023-05-07T07:43:23;8.20;;;4.60;;
77012;SDS011;67260;53.130;17.982;2023-05-07T07:45:50;7.70;;;4.30;;
77012;SDS011;67260;53.130;17.982;2023-05-07T07:48:16;7.90;;;4.50;;
77012;SDS011;67260;53.130;17.982;2023-05-07T07:50:43;7.60;;;4.40;;
77012;SDS011;67260;53.130;17.982;2023-05-07T07:53:10;6.00;;;4.00;;
77012;SDS011;67260;53.130;17.982;2023-05-07T07:55:40;6.30;;;3.50;;
77012;SDS011;67260;53.130;17.982;2023-05-07T07:58:07;7.70;;;3.90;;
77012;SDS011;67260;53.130;17.982;2023-05-07T08:00:34;6.10;;;3.60;;
77012;SDS011;67260;53.130;17.982;2023-05-07T08:03:01;6.00;;;3.20;;
77012;SDS011;67260;53.130;17.982;2023-05-07T08:05:31;7.90;;;3.30;;
77012;SDS011;67260;53.130;17.982;2023-05-07T08:07:58;5.80;;;3.20;;
77012;SDS011;67260;53.130;17.982;2023-05-07T08:10:27;4.60;;;3.00;;
77012;SDS011;67260;53.130;17.982;2023-05-07T08:12:59;6.40;;;3.40;;
77012;SDS011;67260;53.130;17.982;2023-05-07T08:15:26;7.30;;;2.80;;
77012;SDS011;67260;53.130;17.982;2023-05-07T08:17:52;5.80;;;3.10;;
77012;SDS011;67260;53.130;17.982;2023-05-07T08:20:20;4.90;;;2.90;;
77012;SDS011;67260;53.130;17.982;2023-05-07T08:22:46;5.70;;;2.80;;
77012;SDS011;67260;53.130;17.982;2023-05-07T08:25:14;5.40;;;2.50;;
77012;SDS011;67260;53.130;17.982;2023-05-07T08:27:41;4.80;;;2.50;;
77012;SDS011;67260;53.130;17.982;2023-05-07T08:30:11;5.90;;;2.80;;
77012;SDS011;67260;53.130;17.982;2023-05-07T08:32:39;4.20;;;2.40;;
77012;SDS011;67260;53.130;17.982;2023-05-07T08:35:06;4.10;;;2.50;;
77012;SDS011;67260;53.130;17.982;2023-05-07T08:37:34;6.00;;;2.60;;
77012;SDS011;67260;53.130;17.982;2023-05-07T08:40:02;8.80;;;3.00;;
77012;SDS011;67260;53.130;17.982;2023-05-07T08:42:32;4.00;;;2.20;;
77012;SDS011;67260;53.130;17.982;2023-05-07T08:45:05;5.40;;;2.20;;
77012;SDS011;67260;53.130;17.982;2023-05-07T08:47:43;4.10;;;2.10;;
77012;SDS011;67260;53.130;17.982;2023-05-07T08:52:41;7.40;;;2.10;;
77012;SDS011;67260;53.130;17.982;2023-05-07T08:55:09;4.50;;;2.10;;
77012;SDS011;67260;53.130;17.982;2023-05-07T08:57:37;4.10;;;2.00;;
77012;SDS011;67260;53.130;17.982;2023-05-07T09:00:05;5.80;;;2.40;;
77012;SDS011;67260;53.130;17.982;2023-05-07T09:02:35;3.70;;;2.00;;
77012;SDS011;67260;53.130;17.982;2023-05-07T09:05:03;4.90;;;2.30;;
77012;SDS011;67260;53.130;17.982;2023-05-07T09:07:31;3.70;;;2.10;;
77012;SDS011;67260;53.130;17.982;2023-05-07T09:10:00;4.50;;;1.90;;
77012;SDS011;67260;53.130;17.982;2023-05-07T09:12:29;6.00;;;2.30;;
77012;SDS011;67260;53.130;17.982;2023-05-07T09:15:01;3.70;;;2.10;;
77012;SDS011;67260;53.130;17.982;2023-05-07T09:17:29;3.70;;;2.00;;
77012;SDS011;67260;53.130;17.982;2023-05-07T09:19:56;3.90;;;2.10;;
77012;SDS011;67260;53.130;17.982;2023-05-07T09:22:31;4.60;;;2.00;;
77012;SDS011;67260;53.130;17.982;2023-05-07T09:25:04;4.50;;;2.10;;
77012;SDS011;67260;53.130;17.982;2023-05-07T09:27:32;6.20;;;2.00;;
77012;SDS011;67260;53.130;17.982;2023-05-07T09:30:02;4.90;;;2.20;;
77012;SDS011;67260;53.130;17.982;2023-05-07T09:32:38;5.90;;;2.40;;
77012;SDS011;67260;53.130;17.982;2023-05-07T09:35:14;4.50;;;2.60;;
77012;SDS011;67260;53.130;17.982;2023-05-07T09:37:43;5.30;;;2.20;;
77012;SDS011;67260;53.130;17.982;2023-05-07T09:40:20;4.60;;;2.20;;
77012;SDS011;67260;53.130;17.982;2023-05-07T09:42:51;6.10;;;2.20;;
77012;SDS011;67260;53.130;17.982;2023-05-07T09:45:24;5.20;;;2.40;;
77012;SDS011;67260;53.130;17.982;2023-05-07T09:47:56;4.10;;;2.30;;
77012;SDS011;67260;53.130;17.982;2023-05-07T09:50:26;6.30;;;2.40;;
77012;SDS011;67260;53.130;17.982;2023-05-07T09:52:55;5.50;;;2.60;;
77012;SDS011;67260;53.130;17.982;2023-05-07T09:55:23;5.00;;;2.20;;
77012;SDS011;67260;53.130;17.982;2023-05-07T09:57:51;5.40;;;2.50;;
77012;SDS011;67260;53.130;17.982;2023-05-07T10:00:19;4.10;;;2.50;;
77012;SDS011;67260;53.130;17.982;2023-05-07T10:02:54;5.10;;;2.60;;
77012;SDS011;67260;53.130;17.982;2023-05-07T10:05:33;4.10;;;2.30;;
77012;SDS011;67260;53.130;17.982;2023-05-07T10:08:02;5.70;;;2.40;;
77012;SDS011;67260;53.130;17.982;2023-05-07T10:10:30;6.00;;;2.60;;
77012;SDS011;67260;53.130;17.982;2023-05-07T10:12:59;5.20;;;2.80;;
77012;SDS011;67260;53.130;17.982;2023-05-07T10:15:33;4.90;;;2.90;;
77012;SDS011;67260;53.130;17.982;2023-05-07T10:18:03;4.00;;;2.40;;
77012;SDS011;67260;53.130;17.982;2023-05-07T10:20:30;5.70;;;2.90;;
77012;SDS011;67260;53.130;17.982;2023-05-07T10:22:59;5.10;;;2.60;;
77012;SDS011;67260;53.130;17.982;2023-05-07T10:25:33;5.00;;;2.60;;
77012;SDS011;67260;53.130;17.982;2023-05-07T10:28:06;5.10;;;2.70;;
77012;SDS011;67260;53.130;17.982;2023-05-07T10:30:40;4.60;;;2.60;;
77012;SDS011;67260;53.130;17.982;2023-05-07T10:33:22;5.10;;;2.50;;
77012;SDS011;67260;53.130;17.982;2023-05-07T10:35:55;8.60;;;2.60;;
77012;SDS011;67260;53.130;17.982;2023-05-07T10:38:32;6.00;;;2.80;;
77012;SDS011;67260;53.130;17.982;2023-05-07T10:41:00;5.70;;;2.60;;
77012;SDS011;67260;53.130;17.982;2023-05-07T10:43:41;4.50;;;2.20;;
77012;SDS011;67260;53.130;17.982;2023-05-07T10:46:17;5.90;;;2.50;;
77012;SDS011;67260;53.130;17.982;2023-05-07T10:51:36;4.90;;;2.40;;
77012;SDS011;67260;53.130;17.982;2023-05-07T10:56:40;5.10;;;2.60;;
77012;SDS011;67260;53.130;17.982;2023-05-07T11:04:37;5.70;;;2.50;;
77012;SDS011;67260;53.130;17.982;2023-05-07T11:07:16;5.90;;;2.70;;
77012;SDS011;67260;53.130;17.982;2023-05-07T11:12:58;4.50;;;2.60;;
77012;SDS011;67260;53.130;17.982;2023-05-07T11:15:46;4.00;;;2.40;;
77012;SDS011;67260;53.130;17.982;2023-05-07T11:18:47;5.40;;;2.50;;
77012;SDS011;67260;53.130;17.982;2023-05-07T11:21:35;8.30;;;2.90;;
77012;SDS011;67260;53.130;17.982;2023-05-07T11:24:12;6.70;;;2.60;;
77012;SDS011;67260;53.130;17.982;2023-05-07T11:27:05;4.40;;;2.40;;
77012;SDS011;67260;53.130;17.982;2023-05-07T11:29:32;5.10;;;2.60;;
77012;SDS011;67260;53.130;17.982;2023-05-07T11:32:04;4.90;;;2.70;;
77012;SDS011;67260;53.130;17.982;2023-05-07T11:34:38;5.30;;;2.70;;
77012;SDS011;67260;53.130;17.982;2023-05-07T11:37:05;4.50;;;2.60;;
77012;SDS011;67260;53.130;17.982;2023-05-07T11:40:07;4.10;;;2.50;;
77012;SDS011;67260;53.130;17.982;2023-05-07T11:42:38;7.50;;;2.60;;
77012;SDS011;67260;53.130;17.982;2023-05-07T11:45:06;5.60;;;2.70;;
77012;SDS011;67260;53.130;17.982;2023-05-07T11:47:35;4.50;;;2.70;;
77012;SDS011;67260;53.130;17.982;2023-05-07T11:50:06;5.80;;;2.80;;
77012;SDS011;67260;53.130;17.982;2023-05-07T11:52:34;5.40;;;2.90;;
77012;SDS011;67260;53.130;17.982;2023-05-07T11:55:01;4.90;;;2.60;;
77012;SDS011;67260;53.130;17.982;2023-05-07T11:57:32;5.20;;;3.20;;
77012;SDS011;67260;53.130;17.982;2023-05-07T12:00:00;4.80;;;2.70;;
77012;SDS011;67260;53.130;17.982;2023-05-07T12:02:39;5.30;;;2.60;;
77012;SDS011;67260;53.130;17.982;2023-05-07T12:05:05;5.60;;;2.80;;
77012;SDS011;67260;53.130;17.982;2023-05-07T12:07:33;4.90;;;2.60;;
77012;SDS011;67260;53.130;17.982;2023-05-07T12:10:07;5.10;;;2.70;;
77012;SDS011;67260;53.130;17.982;2023-05-07T12:12:45;6.10;;;2.60;;
77012;SDS011;67260;53.130;17.982;2023-05-07T12:15:16;6.20;;;2.80;;
77012;SDS011;67260;53.130;17.982;2023-05-07T12:17:43;5.70;;;2.80;;
77012;SDS011;67260;53.130;17.982;2023-05-07T12:20:11;4.30;;;2.70;;
77012;SDS011;67260;53.130;17.982;2023-05-07T12:22:38;5.00;;;2.50;;
77012;SDS011;67260;53.130;17.982;2023-05-07T12:25:05;5.50;;;2.60;;
77012;SDS011;67260;53.130;17.982;2023-05-07T12:27:36;5.00;;;2.50;;
77012;SDS011;67260;53.130;17.982;2023-05-07T12:30:06;6.50;;;2.40;;
77012;SDS011;67260;53.130;17.982;2023-05-07T12:32:35;4.50;;;2.50;;
77012;SDS011;67260;53.130;17.982;2023-05-07T12:35:03;5.00;;;2.60;;
77012;SDS011;67260;53.130;17.982;2023-05-07T12:37:34;5.20;;;2.50;;
77012;SDS011;67260;53.130;17.982;2023-05-07T12:40:22;6.50;;;2.50;;
77012;SDS011;67260;53.130;17.982;2023-05-07T12:42:52;4.80;;;2.50;;
77012;SDS011;67260;53.130;17.982;2023-05-07T12:45:21;4.30;;;2.50;;
77012;SDS011;67260;53.130;17.982;2023-05-07T12:47:48;5.00;;;2.60;;
77012;SDS011;67260;53.130;17.982;2023-05-07T12:50:15;3.90;;;2.40;;
77012;SDS011;67260;53.130;17.982;2023-05-07T12:52:43;4.40;;;2.50;;
77012;SDS011;67260;53.130;17.982;2023-05-07T12:55:12;5.80;;;2.70;;
77012;SDS011;67260;53.130;17.982;2023-05-07T12:57:42;5.40;;;2.40;;
77012;SDS011;67260;53.130;17.982;2023-05-07T13:00:12;5.30;;;2.20;;
77012;SDS011;67260;53.130;17.982;2023-05-07T13:02:44;4.90;;;2.30;;
77012;SDS011;67260;53.130;17.982;2023-05-07T13:05:11;5.80;;;2.40;;
77012;SDS011;67260;53.130;17.982;2023-05-07T13:07:38;3.70;;;2.30;;
77012;SDS011;67260;53.130;17.982;2023-05-07T13:10:07;8.00;;;3.70;;
77012;SDS011;67260;53.130;17.982;2023-05-07T13:12:34;4.80;;;2.60;;
77012;SDS011;67260;53.130;17.982;2023-05-07T13:15:01;5.40;;;2.40;;
77012;SDS011;67260;53.130;17.982;2023-05-07T13:17:28;5.80;;;2.20;;
77012;SDS011;67260;53.130;17.982;2023-05-07T13:19:54;4.70;;;2.50;;
77012;SDS011;67260;53.130;17.982;2023-05-07T13:22:21;4.90;;;2.60;;
77012;SDS011;67260;53.130;17.982;2023-05-07T13:24:48;4.90;;;2.30;;
77012;SDS011;67260;53.130;17.982;2023-05-07T13:27:14;4.90;;;2.60;;
77012;SDS011;67260;53.130;17.982;2023-05-07T13:29:41;4.70;;;2.30;;
77012;SDS011;67260;53.130;17.982;2023-05-07T13:32:08;7.20;;;2.70;;
77012;SDS011;67260;53.130;17.982;2023-05-07T13:34:34;4.80;;;2.60;;
77012;SDS011;67260;53.130;17.982;2023-05-07T13:37:02;6.20;;;2.90;;
77012;SDS011;67260;53.130;17.982;2023-05-07T13:39:28;4.30;;;2.20;;
77012;SDS011;67260;53.130;17.982;2023-05-07T13:41:55;4.40;;;2.30;;
77012;SDS011;67260;53.130;17.982;2023-05-07T13:44:23;5.60;;;2.70;;
77012;SDS011;67260;53.130;17.982;2023-05-07T13:46:50;4.70;;;2.70;;
77012;SDS011;67260;53.130;17.982;2023-05-07T13:49:17;6.40;;;4.60;;
77012;SDS011;67260;53.130;17.982;2023-05-07T13:51:47;5.20;;;3.30;;
77012;SDS011;67260;53.130;17.982;2023-05-07T13:54:14;5.10;;;2.60;;
77012;SDS011;67260;53.130;17.982;2023-05-07T13:56:41;5.70;;;2.60;;
77012;SDS011;67260;53.130;17.982;2023-05-07T13:59:07;5.80;;;2.80;;
77012;SDS011;67260;53.130;17.982;2023-05-07T14:01:34;4.60;;;2.20;;
77012;SDS011;67260;53.130;17.982;2023-05-07T14:04:01;4.50;;;2.30;;
77012;SDS011;67260;53.130;17.982;2023-05-07T14:06:28;4.50;;;2.30;;
77012;SDS011;67260;53.130;17.982;2023-05-07T14:08:55;5.60;;;2.50;;
77012;SDS011;67260;53.130;17.982;2023-05-07T14:11:24;3.70;;;2.30;;
77012;SDS011;67260;53.130;17.982;2023-05-07T14:13:51;5.00;;;2.30;;
77012;SDS011;67260;53.130;17.982;2023-05-07T14:16:17;7.00;;;2.70;;
77012;SDS011;67260;53.130;17.982;2023-05-07T14:18:44;6.40;;;2.30;;
77012;SDS011;67260;53.130;17.982;2023-05-07T14:21:11;4.20;;;2.30;;
77012;SDS011;67260;53.130;17.982;2023-05-07T14:23:39;5.00;;;2.40;;
77012;SDS011;67260;53.130;17.982;2023-05-07T14:26:06;4.30;;;2.40;;
77012;SDS011;67260;53.130;17.982;2023-05-07T14:28:33;4.30;;;2.30;;
77012;SDS011;67260;53.130;17.982;2023-05-07T14:31:00;5.20;;;2.30;;
77012;SDS011;67260;53.130;17.982;2023-05-07T14:33:27;4.50;;;2.30;;
77012;SDS011;67260;53.130;17.982;2023-05-07T14:35:53;5.00;;;2.40;;
77012;SDS011;67260;53.130;17.982;2023-05-07T14:38:21;4.90;;;2.10;;
77012;SDS011;67260;53.130;17.982;2023-05-07T14:40:50;4.30;;;2.50;;
77012;SDS011;67260;53.130;17.982;2023-05-07T14:43:19;7.40;;;2.40;;
77012;SDS011;67260;53.130;17.982;2023-05-07T14:45:48;4.70;;;2.50;;
77012;SDS011;67260;53.130;17.982;2023-05-07T14:48:16;4.90;;;2.40;;
77012;SDS011;67260;53.130;17.982;2023-05-07T14:50:43;5.50;;;3.00;;
77012;SDS011;67260;53.130;17.982;2023-05-07T14:53:09;4.60;;;2.60;;
77012;SDS011;67260;53.130;17.982;2023-05-07T14:55:39;5.50;;;2.40;;
77012;SDS011;67260;53.130;17.982;2023-05-07T14:58:09;4.80;;;2.20;;
77012;SDS011;67260;53.130;17.982;2023-05-07T15:00:37;3.80;;;2.50;;
77012;SDS011;67260;53.130;17.982;2023-05-07T15:03:05;4.10;;;2.10;;
77012;SDS011;67260;53.130;17.982;2023-05-07T15:05:33;5.70;;;3.20;;
77012;SDS011;67260;53.130;17.982;2023-05-07T15:08:01;5.20;;;2.90;;
77012;SDS011;67260;53.130;17.982;2023-05-07T15:10:27;6.00;;;2.80;;
77012;SDS011;67260;53.130;17.982;2023-05-07T15:12:54;5.50;;;2.50;;
77012;SDS011;67260;53.130;17.982;2023-05-07T15:15:21;8.10;;;3.30;;
77012;SDS011;67260;53.130;17.982;2023-05-07T15:17:48;5.20;;;2.30;;
77012;SDS011;67260;53.130;17.982;2023-05-07T15:20:14;4.00;;;2.50;;
77012;SDS011;67260;53.130;17.982;2023-05-07T15:22:41;4.00;;;2.10;;
77012;SDS011;67260;53.130;17.982;2023-05-07T15:25:09;5.20;;;2.70;;